Time;durP1;ratioP1;P1;durP2;ratioP2;P2;SDS_P1;SDS_P2;PMS_P1;PMS_P2;Temp;Humidity;BMP_temperature;BMP_pressure;BME280_temperature;BME280_humidity;BME280_pressure;Samples;Min_cycle;Max_cycle;Signal;HPM_P1;HPM_P2
2023/05/03 00:00:19;;;;;;;6.25;1.63;;;3.90;99.90;;;;;;5051684;28;20044;-61
2023/05/03 00:02:45;;;;;;;4.60;1.55;;;3.80;99.90;;;;;;5052891;28;20040;-61
2023/05/03 00:05:13;;;;;;;4.13;1.60;;;3.80;99.90;;;;;;5051624;28;20399;-61
2023/05/03 00:07:42;;;;;;;5.57;1.92;;;3.90;99.90;;;;;;5051053;28;20060;-60
2023/05/03 00:10:11;;;;;;;3.85;2.20;;;3.80;99.90;;;;;;5052832;28;20439;-60
2023/05/03 00:12:41;;;;;;;2.95;1.73;;;3.80;99.90;;;;;;5052550;28;20496;-61
2023/05/03 00:15:09;;;;;;;3.88;1.73;;;3.80;99.90;;;;;;5052769;28;20045;-59
2023/05/03 00:17:36;;;;;;;5.55;1.73;;;3.80;99.90;;;;;;5052511;28;20044;-60
2023/05/03 00:20:03;;;;;;;3.60;1.75;;;3.70;99.90;;;;;;5052861;28;20047;-61
2023/05/03 00:22:29;;;;;;;3.50;1.73;;;3.70;99.90;;;;;;5051136;28;20560;-59
2023/05/03 00:24:55;;;;;;;2.63;1.60;;;3.60;99.90;;;;;;5050974;28;20119;-60
2023/05/03 00:27:21;;;;;;;3.78;1.80;;;3.60;99.90;;;;;;5052408;28;20399;-60
2023/05/03 00:29:50;;;;;;;5.05;1.73;;;3.60;99.90;;;;;;5051977;28;20033;-60
2023/05/03 00:32:16;;;;;;;4.50;1.80;;;3.50;99.90;;;;;;5051229;28;20059;-60
2023/05/03 00:34:41;;;;;;;3.90;1.77;;;3.50;99.90;;;;;;5051968;28;20029;-61
2023/05/03 00:37:08;;;;;;;3.85;1.67;;;3.50;99.90;;;;;;5052183;28;20033;-60
2023/05/03 00:39:34;;;;;;;4.53;1.88;;;3.40;99.90;;;;;;5050862;28;20095;-60
2023/05/03 00:42:03;;;;;;;4.05;1.80;;;3.40;99.90;;;;;;5051949;28;20099;-60
2023/05/03 00:44:29;;;;;;;5.18;2.90;;;3.40;99.90;;;;;;5052121;28;20041;-60
2023/05/03 00:46:55;;;;;;;4.75;2.25;;;3.40;99.90;;;;;;5051710;28;20116;-61
2023/05/03 00:49:24;;;;;;;4.68;2.05;;;3.40;99.90;;;;;;5052055;28;20036;-61
2023/05/03 00:51:52;;;;;;;5.00;2.25;;;3.30;99.90;;;;;;5050436;28;20049;-60
2023/05/03 00:54:18;;;;;;;8.43;2.63;;;3.30;99.90;;;;;;5051942;28;20431;-61
2023/05/03 00:56:43;;;;;;;4.93;2.30;;;3.30;99.90;;;;;;5049799;28;20049;-60
2023/05/03 00:59:12;;;;;;;3.63;2.30;;;3.20;99.90;;;;;;5050690;28;20032;-61
2023/05/03 01:01:37;;;;;;;5.38;2.25;;;3.20;99.90;;;;;;5047475;28;20037;-59
2023/05/03 01:04:05;;;;;;;3.95;2.30;;;3.20;99.90;;;;;;5046196;28;20055;-62
2023/05/03 01:07:02;;;;;;;5.25;2.28;;;3.20;99.90;;;;;;5050726;28;20095;-60
2023/05/03 01:09:50;;;;;;;4.47;2.13;;;3.20;99.90;;;;;;5048441;28;20036;-60
2023/05/03 01:12:56;;;;;;;5.40;2.10;;;3.20;99.90;;;;;;5051664;28;20032;-60
2023/05/03 01:15:34;;;;;;;4.47;2.45;;;3.20;99.90;;;;;;5050391;28;20055;-61
2023/05/03 01:18:11;;;;;;;5.00;2.30;;;3.10;99.90;;;;;;5051246;28;20041;-61
2023/05/03 01:20:39;;;;;;;4.95;2.25;;;3.10;99.90;;;;;;5051453;28;20582;-59
2023/05/03 01:23:13;;;;;;;5.90;2.33;;;3.10;99.90;;;;;;5050967;28;20048;-61
2023/05/03 01:25:39;;;;;;;4.70;2.33;;;3.10;99.90;;;;;;5050397;28;20044;-59
2023/05/03 01:28:04;;;;;;;4.25;2.63;;;3.10;99.90;;;;;;5050398;28;21498;-61
2023/05/03 01:30:31;;;;;;;4.72;2.40;;;3.10;99.90;;;;;;5051537;28;20440;-61
2023/05/03 01:33:15;;;;;;;4.88;2.60;;;3.10;99.90;;;;;;5050539;28;20057;-59
2023/05/03 01:35:59;;;;;;;6.35;2.65;;;3.00;99.90;;;;;;5048442;28;20040;-60
2023/05/03 01:38:29;;;;;;;6.65;2.53;;;3.00;99.90;;;;;;5049889;28;20072;-60
2023/05/03 01:40:59;;;;;;;5.90;2.72;;;3.00;99.90;;;;;;5049077;28;20391;-61
2023/05/03 01:43:25;;;;;;;7.43;2.85;;;3.00;99.90;;;;;;5049793;28;20041;-60
2023/05/03 01:45:51;;;;;;;7.45;3.15;;;3.00;99.90;;;;;;5050371;28;20491;-61
2023/05/03 01:48:18;;;;;;;4.75;2.30;;;2.90;99.90;;;;;;5049591;28;20099;-59
2023/05/03 01:50:44;;;;;;;5.55;2.80;;;2.90;99.90;;;;;;5049512;28;20036;-60
2023/05/03 01:53:10;;;;;;;5.18;2.50;;;2.90;99.90;;;;;;5046822;28;20095;-60
2023/05/03 01:55:36;;;;;;;4.35;2.25;;;2.90;99.90;;;;;;5050823;28;20040;-61
2023/05/03 01:58:01;;;;;;;6.50;2.55;;;2.90;99.90;;;;;;5050591;28;20610;-62
2023/05/03 02:00:27;;;;;;;3.53;2.42;;;2.90;99.90;;;;;;5050728;28;20036;-60
2023/05/03 02:02:53;;;;;;;6.07;2.75;;;2.90;99.90;;;;;;5048564;28;20059;-61
2023/05/03 02:05:19;;;;;;;8.20;2.15;;;2.90;99.90;;;;;;5050204;28;20070;-60
2023/05/03 02:07:45;;;;;;;5.38;2.58;;;2.80;99.90;;;;;;5048213;28;20510;-60
2023/05/03 02:10:13;;;;;;;4.32;2.80;;;2.80;99.90;;;;;;5049951;28;20116;-60
2023/05/03 02:12:40;;;;;;;4.72;2.50;;;2.70;99.90;;;;;;5049600;28;20069;-60
2023/05/03 02:15:07;;;;;;;3.47;2.60;;;2.70;99.90;;;;;;5050130;28;20041;-59
2023/05/03 02:17:33;;;;;;;4.95;2.40;;;2.70;99.90;;;;;;5049484;28;20112;-61
2023/05/03 02:19:58;;;;;;;5.85;2.65;;;2.80;99.90;;;;;;5046880;28;20235;-61
2023/05/03 02:22:24;;;;;;;6.15;2.53;;;2.70;99.90;;;;;;5047745;28;20037;-60
2023/05/03 02:24:50;;;;;;;3.47;2.20;;;2.70;99.90;;;;;;5046947;28;20037;-59
2023/05/03 02:27:16;;;;;;;4.88;2.45;;;2.70;99.90;;;;;;5047806;28;20110;-61
2023/05/03 02:29:41;;;;;;;4.03;2.42;;;2.70;99.90;;;;;;5046775;28;20041;-61
2023/05/03 02:32:07;;;;;;;3.75;2.40;;;2.70;99.90;;;;;;5049399;28;20043;-59
2023/05/03 02:34:33;;;;;;;4.15;2.20;;;2.70;99.90;;;;;;5048337;28;20377;-60
2023/05/03 02:36:58;;;;;;;5.82;2.40;;;2.70;99.90;;;;;;5049342;28;20040;-61
2023/05/03 02:39:24;;;;;;;5.80;2.83;;;2.70;99.90;;;;;;5048139;28;20537;-59
2023/05/03 02:41:50;;;;;;;4.70;2.72;;;2.70;99.90;;;;;;5049432;28;20163;-60
2023/05/03 02:44:15;;;;;;;5.97;2.70;;;2.70;99.90;;;;;;5047825;28;20076;-60
2023/05/03 02:46:41;;;;;;;3.45;2.22;;;2.60;99.90;;;;;;5049228;28;20037;-61
2023/05/03 02:49:08;;;;;;;4.72;2.30;;;2.60;99.90;;;;;;5048643;28;20040;-60
2023/05/03 02:51:34;;;;;;;3.65;2.20;;;2.60;99.90;;;;;;5048569;28;20049;-61
2023/05/03 02:54:00;;;;;;;3.50;2.58;;;2.60;99.90;;;;;;5048347;28;20040;-60
2023/05/03 02:56:26;;;;;;;3.33;2.10;;;2.50;99.90;;;;;;5048047;28;20051;-59
2023/05/03 02:58:52;;;;;;;3.40;2.30;;;2.50;99.90;;;;;;5051264;28;20503;-60
2023/05/03 03:01:18;;;;;;;4.28;2.55;;;2.50;99.90;;;;;;5052822;28;20399;-60
2023/05/03 03:03:43;;;;;;;4.20;2.78;;;2.50;99.90;;;;;;5052531;28;20043;-60
2023/05/03 03:06:09;;;;;;;6.20;2.42;;;2.50;99.90;;;;;;5051678;28;20052;-59
2023/05/03 03:08:35;;;;;;;3.40;2.15;;;2.40;99.90;;;;;;5052887;28;20065;-62
2023/05/03 03:11:02;;;;;;;4.50;2.15;;;2.40;99.90;;;;;;5053996;28;20491;-62
2023/05/03 03:13:28;;;;;;;5.03;3.00;;;2.40;99.90;;;;;;5053443;28;20053;-61
2023/05/03 03:15:54;;;;;;;4.72;2.60;;;2.40;99.90;;;;;;5053504;28;20522;-60
2023/05/03 03:18:20;;;;;;;5.82;3.97;;;2.40;99.90;;;;;;5052658;28;20044;-60
2023/05/03 03:20:45;;;;;;;5.13;3.72;;;2.40;99.90;;;;;;5053740;28;20124;-60
2023/05/03 03:23:11;;;;;;;5.35;3.00;;;2.40;99.90;;;;;;5053712;28;20373;-60
2023/05/03 03:25:37;;;;;;;6.38;2.65;;;2.30;99.90;;;;;;5053559;28;20041;-61
2023/05/03 03:28:03;;;;;;;3.58;2.40;;;2.30;99.90;;;;;;5052396;28;20589;-61
2023/05/03 03:30:29;;;;;;;4.68;2.70;;;2.30;99.90;;;;;;5053304;28;20450;-60
2023/05/03 03:32:55;;;;;;;6.75;2.33;;;2.30;99.90;;;;;;5053366;28;20545;-61
2023/05/03 03:35:20;;;;;;;3.63;2.13;;;2.20;99.90;;;;;;5053392;28;20132;-60
2023/05/03 03:37:46;;;;;;;4.43;1.80;;;2.20;99.90;;;;;;5053196;28;20044;-61
2023/05/03 03:40:12;;;;;;;3.53;2.50;;;2.10;99.90;;;;;;5053460;28;20617;-60
2023/05/03 03:42:39;;;;;;;2.47;1.83;;;2.10;99.90;;;;;;5052987;28;20033;-60
2023/05/03 03:45:05;;;;;;;3.70;2.00;;;2.10;99.90;;;;;;5053327;28;20033;-60
2023/05/03 03:47:30;;;;;;;4.55;1.90;;;2.10;99.90;;;;;;5051688;28;20195;-60
2023/05/03 03:49:57;;;;;;;5.50;2.25;;;2.00;99.90;;;;;;5052939;28;20128;-61
2023/05/03 03:52:23;;;;;;;5.70;1.90;;;2.10;99.90;;;;;;5053054;28;20053;-61
2023/05/03 03:54:48;;;;;;;4.70;1.90;;;2.00;99.90;;;;;;5052917;28;20041;-60
2023/05/03 03:57:14;;;;;;;4.03;2.17;;;2.00;99.90;;;;;;5053086;28;20029;-59
2023/05/03 03:59:40;;;;;;;5.07;1.90;;;2.00;99.90;;;;;;5052826;28;20075;-61
2023/05/03 04:02:05;;;;;;;2.75;2.13;;;2.00;99.90;;;;;;5051365;28;20045;-62
2023/05/03 04:04:31;;;;;;;4.38;1.88;;;2.00;99.90;;;;;;5052870;28;20056;-61
2023/05/03 04:06:56;;;;;;;5.47;2.33;;;2.00;99.90;;;;;;5050558;28;20040;-61
2023/05/03 04:09:22;;;;;;;5.55;1.73;;;2.00;99.90;;;;;;5049048;28;20395;-60
2023/05/03 04:11:48;;;;;;;5.57;2.03;;;2.00;99.90;;;;;;5051859;28;20028;-61
2023/05/03 04:14:13;;;;;;;4.22;2.00;;;2.00;99.90;;;;;;5051975;28;20052;-61
2023/05/03 04:16:39;;;;;;;3.25;2.30;;;1.90;99.90;;;;;;5050537;28;20041;-60
2023/05/03 04:19:05;;;;;;;2.55;1.92;;;2.00;99.90;;;;;;5051199;28;20037;-60
2023/05/03 04:21:31;;;;;;;5.38;1.90;;;2.00;99.90;;;;;;5050058;28;20075;-60
2023/05/03 04:23:57;;;;;;;4.32;1.90;;;2.00;99.90;;;;;;5051940;28;20041;-60
2023/05/03 04:26:23;;;;;;;4.43;1.90;;;2.00;99.90;;;;;;5052360;28;20102;-59
2023/05/03 04:28:50;;;;;;;2.55;2.10;;;2.10;99.90;;;;;;5050836;28;20112;-61
2023/05/03 04:31:18;;;;;;;4.30;1.98;;;2.10;99.90;;;;;;5052438;28;20041;-60
2023/05/03 04:33:44;;;;;;;4.60;2.00;;;2.20;99.90;;;;;;5050751;28;20170;-60
2023/05/03 04:36:14;;;;;;;2.90;2.30;;;2.20;99.90;;;;;;5052290;28;20043;-61
2023/05/03 04:38:42;;;;;;;3.55;2.22;;;2.30;99.90;;;;;;5050995;28;20442;-60
2023/05/03 04:41:08;;;;;;;2.97;2.10;;;2.30;99.90;;;;;;5051903;28;20121;-59
2023/05/03 04:43:34;;;;;;;3.03;1.95;;;2.30;99.90;;;;;;5052104;28;20037;-60
2023/05/03 04:46:02;;;;;;;4.78;2.08;;;2.40;99.90;;;;;;5051833;28;20539;-61
2023/05/03 04:48:28;;;;;;;6.88;2.00;;;2.50;99.90;;;;;;5050734;28;20055;-60
2023/05/03 04:50:53;;;;;;;4.10;2.13;;;2.60;99.90;;;;;;5051613;28;20037;-60
2023/05/03 04:53:19;;;;;;;2.65;2.40;;;2.60;99.90;;;;;;5051990;28;20041;-61
2023/05/03 04:55:46;;;;;;;3.20;1.95;;;2.70;99.90;;;;;;5051723;28;20037;-60
2023/05/03 04:58:12;;;;;;;2.97;2.17;;;2.80;99.90;;;;;;5051603;28;20404;-60
2023/05/03 05:00:37;;;;;;;3.38;1.83;;;2.80;99.90;;;;;;5052113;28;20036;-61
2023/05/03 05:03:05;;;;;;;4.65;1.90;;;2.90;99.90;;;;;;5051410;28;20040;-61
2023/05/03 05:05:30;;;;;;;4.32;2.00;;;3.00;99.90;;;;;;5051866;28;21014;-60
2023/05/03 05:07:57;;;;;;;5.75;2.40;;;3.00;99.90;;;;;;5049973;28;20055;-61
2023/05/03 05:10:22;;;;;;;3.95;2.10;;;3.10;99.90;;;;;;5050374;28;20045;-61
2023/05/03 05:12:48;;;;;;;3.42;2.05;;;3.20;99.90;;;;;;5050112;28;20064;-60
2023/05/03 05:15:14;;;;;;;2.65;2.10;;;3.30;99.90;;;;;;5051303;28;20504;-61
2023/05/03 05:17:39;;;;;;;2.25;2.03;;;3.30;99.90;;;;;;5050699;28;20119;-61
2023/05/03 05:20:07;;;;;;;5.32;2.88;;;3.50;99.90;;;;;;5048444;28;20037;-60
2023/05/03 05:22:33;;;;;;;3.10;2.10;;;3.60;99.90;;;;;;5047932;28;20736;-60
2023/05/03 05:24:59;;;;;;;3.33;2.00;;;3.70;99.90;;;;;;5045199;28;20068;-60
2023/05/03 05:27:26;;;;;;;2.90;2.28;;;3.80;99.90;;;;;;5061602;28;20383;-60
2023/05/03 05:29:52;;;;;;;2.97;2.10;;;4.00;99.90;;;;;;5049624;28;20036;-60
2023/05/03 05:32:17;;;;;;;4.80;2.33;;;4.10;99.90;;;;;;5050737;28;20037;-61
2023/05/03 05:34:44;;;;;;;2.90;2.60;;;4.30;99.90;;;;;;5051087;28;20033;-60
2023/05/03 05:37:10;;;;;;;2.85;2.35;;;4.40;99.90;;;;;;5045576;28;20033;-59
2023/05/03 05:39:35;;;;;;;3.95;2.67;;;4.60;99.90;;;;;;5064414;28;20434;-61
2023/05/03 05:42:02;;;;;;;5.65;3.45;;;4.70;99.90;;;;;;5050570;28;20396;-60
2023/05/03 05:44:28;;;;;;;7.07;3.35;;;4.90;99.90;;;;;;5047374;28;20069;-60
2023/05/03 05:46:54;;;;;;;6.20;3.38;;;5.10;99.90;;;;;;5049171;28;20029;-59
2023/05/03 05:49:20;;;;;;;4.82;2.90;;;5.20;99.90;;;;;;5050441;28;20037;-61
2023/05/03 05:51:46;;;;;;;4.22;2.97;;;5.30;99.90;;;;;;5046496;28;20578;-60
2023/05/03 05:54:11;;;;;;;6.85;3.20;;;5.50;99.90;;;;;;5042897;28;21467;-61
2023/05/03 05:56:37;;;;;;;6.97;3.20;;;5.70;99.90;;;;;;5050483;28;20047;-60
2023/05/03 05:59:04;;;;;;;6.97;3.15;;;5.80;99.90;;;;;;5049142;28;20475;-61
2023/05/03 06:01:31;;;;;;;5.85;3.13;;;5.90;99.90;;;;;;5048559;28;20072;-60
2023/05/03 06:03:56;;;;;;;7.20;3.00;;;6.00;99.90;;;;;;5044740;28;20037;-61
2023/05/03 06:06:22;;;;;;;4.32;2.90;;;6.00;99.90;;;;;;5048213;28;20041;-60
2023/05/03 06:08:50;;;;;;;5.22;3.28;;;6.10;99.90;;;;;;5044886;28;20084;-60
2023/05/03 06:11:16;;;;;;;5.22;2.70;;;6.10;99.90;;;;;;5046915;28;20049;-60
2023/05/03 06:13:42;;;;;;;3.13;2.50;;;6.20;99.90;;;;;;5048434;28;20072;-60
2023/05/03 06:16:09;;;;;;;4.53;2.90;;;6.30;99.90;;;;;;5049916;28;20056;-60
2023/05/03 06:18:35;;;;;;;6.93;3.17;;;6.40;99.90;;;;;;5045634;28;20400;-61
2023/05/03 06:21:01;;;;;;;5.45;2.90;;;6.50;99.90;;;;;;5049227;28;20052;-61
2023/05/03 06:23:27;;;;;;;4.47;3.30;;;6.60;99.90;;;;;;5048489;28;20044;-59
2023/05/03 06:25:52;;;;;;;5.25;3.10;;;6.70;99.90;;;;;;5046264;28;20048;-61
2023/05/03 06:28:18;;;;;;;4.55;3.10;;;6.80;99.90;;;;;;5047236;28;20052;-59
2023/05/03 06:30:50;;;;;;;5.93;2.88;;;7.10;99.90;;;;;;5048366;28;20407;-59
2023/05/03 06:33:16;;;;;;;6.32;2.85;;;7.40;99.90;;;;;;5048945;28;20057;-62
2023/05/03 06:35:42;;;;;;;5.75;2.55;;;7.60;99.90;;;;;;5048329;28;20365;-60
2023/05/03 06:38:10;;;;;;;6.30;2.40;;;7.70;99.90;;;;;;5047885;28;20041;-61
2023/05/03 06:40:36;;;;;;;6.93;2.65;;;7.70;99.90;;;;;;5046651;28;20037;-61
2023/05/03 06:43:02;;;;;;;3.90;2.30;;;7.80;99.90;;;;;;5047616;28;20048;-61
2023/05/03 06:45:28;;;;;;;3.25;2.03;;;8.10;99.90;;;;;;5047565;28;20111;-60
2023/05/03 06:47:53;;;;;;;2.83;1.95;;;8.30;99.90;;;;;;5047648;28;20395;-61
2023/05/03 06:50:21;;;;;;;6.07;1.67;;;8.50;99.90;;;;;;5047738;28;20040;-60
2023/05/03 06:52:47;;;;;;;4.40;1.80;;;8.70;99.90;;;;;;5042789;28;20057;-60
2023/05/03 06:55:13;;;;;;;7.93;1.77;;;8.70;99.90;;;;;;5044099;28;20114;-62
2023/05/03 06:57:41;;;;;;;3.30;1.80;;;8.80;99.90;;;;;;5044455;28;20037;-61
2023/05/03 07:00:07;;;;;;;5.00;1.30;;;9.00;99.90;;;;;;5047134;28;20041;-61
2023/05/03 07:02:33;;;;;;;3.92;1.85;;;9.20;99.90;;;;;;5047576;28;20090;-60
2023/05/03 07:04:59;;;;;;;3.35;1.23;;;9.40;99.90;;;;;;5044497;28;20033;-61
2023/05/03 07:07:25;;;;;;;4.70;1.30;;;9.50;99.90;;;;;;5048752;28;20033;-61
2023/05/03 07:09:50;;;;;;;4.30;1.10;;;9.50;99.90;;;;;;5030450;28;20033;-60
2023/05/03 07:12:16;;;;;;;2.13;1.27;;;9.70;99.90;;;;;;5047899;28;20029;-61
2023/05/03 07:14:42;;;;;;;2.20;1.08;;;10.00;99.90;;;;;;5051332;28;20436;-60
2023/05/03 07:17:08;;;;;;;3.08;1.05;;;10.30;99.90;;;;;;5048835;28;20029;-61
2023/05/03 07:19:35;;;;;;;2.42;0.85;;;10.40;99.90;;;;;;5047389;28;20033;-61
2023/05/03 07:22:02;;;;;;;1.73;0.80;;;10.40;99.90;;;;;;5047440;28;20037;-61
2023/05/03 07:24:28;;;;;;;4.53;1.08;;;10.30;99.90;;;;;;5048602;28;20048;-60
2023/05/03 07:26:53;;;;;;;3.78;1.00;;;10.30;99.90;;;;;;5048075;28;20096;-61
2023/05/03 07:29:20;;;;;;;3.53;0.90;;;10.30;99.90;;;;;;5048113;28;20061;-61
2023/05/03 07:31:46;;;;;;;2.58;0.88;;;10.30;99.90;;;;;;5046127;28;20491;-61
2023/05/03 07:34:11;;;;;;;2.33;0.77;;;10.40;99.90;;;;;;5046009;28;20095;-61
2023/05/03 07:36:38;;;;;;;1.88;0.77;;;10.30;99.90;;;;;;5048282;28;20036;-60
2023/05/03 07:39:04;;;;;;;3.25;0.80;;;10.20;99.90;;;;;;5046630;28;20037;-63
2023/05/03 07:41:30;;;;;;;2.83;1.00;;;10.10;99.90;;;;;;5039761;28;20548;-60
2023/05/03 07:43:56;;;;;;;3.35;0.98;;;10.00;99.90;;;;;;5049881;28;20052;-60
2023/05/03 07:46:22;;;;;;;4.18;0.90;;;9.90;99.90;;;;;;5048892;28;20048;-60
2023/05/03 07:48:48;;;;;;;2.95;0.90;;;9.80;99.90;;;;;;5050416;28;20048;-61
2023/05/03 07:51:14;;;;;;;4.18;0.98;;;9.70;99.90;;;;;;5040227;28;20114;-60
2023/05/03 07:53:40;;;;;;;2.90;0.90;;;9.90;99.90;;;;;;5034668;28;20049;-61
2023/05/03 07:56:06;;;;;;;2.70;1.10;;;10.30;99.90;;;;;;5047960;28;20110;-62
2023/05/03 07:58:32;;;;;;;2.38;0.90;;;10.60;99.90;;;;;;5052885;28;20396;-60
2023/05/03 08:00:58;;;;;;;2.47;0.93;;;10.90;99.90;;;;;;5039740;28;20047;-60
2023/05/03 08:03:23;;;;;;;5.03;1.10;;;11.20;99.90;;;;;;5037809;28;20045;-61
2023/05/03 08:05:49;;;;;;;3.95;1.27;;;11.40;99.90;;;;;;5052658;28;20044;-61
2023/05/03 08:08:15;;;;;;;2.95;0.90;;;11.60;99.90;;;;;;5048125;28;20041;-61
2023/05/03 08:10:41;;;;;;;2.55;1.02;;;11.70;99.90;;;;;;5044691;28;20484;-60
2023/05/03 08:13:07;;;;;;;2.58;1.17;;;11.60;99.90;;;;;;5047035;28;20483;-60
2023/05/03 08:15:33;;;;;;;4.22;1.20;;;11.70;99.90;;;;;;5051109;28;20517;-60
2023/05/03 08:17:59;;;;;;;2.22;1.00;;;11.80;99.90;;;;;;5045271;28;20036;-61
2023/05/03 08:20:28;;;;;;;4.07;0.93;;;11.90;99.90;;;;;;5047226;28;20049;-60
2023/05/03 08:22:58;;;;;;;1.70;0.95;;;12.00;99.90;;;;;;5052302;28;20053;-60
2023/05/03 08:25:24;;;;;;;5.05;1.65;;;12.00;99.90;;;;;;5050127;28;20045;-62
2023/05/03 08:27:54;;;;;;;6.40;1.33;;;11.90;99.90;;;;;;5050795;28;20416;-61
2023/05/03 08:30:24;;;;;;;4.85;1.30;;;12.20;99.90;;;;;;5044379;28;20111;-61
2023/05/03 08:32:50;;;;;;;3.25;1.25;;;12.50;99.90;;;;;;5049401;28;20115;-60
2023/05/03 08:35:16;;;;;;;3.17;1.17;;;12.70;99.90;;;;;;5048790;28;20045;-62
2023/05/03 08:37:42;;;;;;;3.83;1.02;;;12.90;99.90;;;;;;5048636;28;20048;-60
2023/05/03 08:40:12;;;;;;;4.95;1.10;;;13.00;99.90;;;;;;5050168;28;20083;-61
2023/05/03 08:42:42;;;;;;;3.17;1.10;;;13.20;99.30;;;;;;5044141;28;20094;-61
2023/05/03 08:45:13;;;;;;;1.73;0.80;;;13.20;98.50;;;;;;5049996;28;20029;-61
2023/05/03 08:47:43;;;;;;;4.03;1.20;;;13.20;98.00;;;;;;5044347;28;20059;-60
2023/05/03 08:50:10;;;;;;;2.35;1.15;;;13.30;99.00;;;;;;5045736;28;20032;-61
2023/05/03 08:52:40;;;;;;;4.47;1.17;;;13.40;98.50;;;;;;5044273;28;20450;-60
2023/05/03 08:55:06;;;;;;;4.43;1.20;;;13.50;98.40;;;;;;5044533;28;20037;-61
2023/05/03 08:57:34;;;;;;;2.63;1.30;;;13.70;97.90;;;;;;5048778;28;20522;-60
2023/05/03 09:00:00;;;;;;;2.30;0.95;;;13.80;96.60;;;;;;5044220;28;20033;-60
2023/05/03 09:02:27;;;;;;;2.93;1.20;;;13.80;96.50;;;;;;5037354;28;20095;-61
2023/05/03 09:04:53;;;;;;;3.35;1.00;;;13.50;96.10;;;;;;5035074;28;20456;-61
2023/05/03 09:07:19;;;;;;;1.02;0.80;;;13.30;96.60;;;;;;5036402;28;20045;-60
2023/05/03 09:09:48;;;;;;;5.15;1.00;;;13.10;96.50;;;;;;5032837;28;20139;-61
2023/05/03 09:12:44;;;;;;;2.63;1.08;;;13.30;97.00;;;;;;5036231;28;20050;-61
2023/05/03 09:15:20;;;;;;;1.92;1.02;;;13.50;94.90;;;;;;5034816;28;20079;-61
2023/05/03 09:18:05;;;;;;;3.00;1.00;;;13.80;95.80;;;;;;5037552;28;20171;-62
2023/05/03 09:20:35;;;;;;;3.22;1.08;;;14.10;96.00;;;;;;5055263;28;20117;-60
2023/05/03 09:23:01;;;;;;;2.40;0.82;;;14.40;95.80;;;;;;5047009;28;20222;-61
2023/05/03 09:25:44;;;;;;;2.03;1.00;;;14.70;95.00;;;;;;5038859;28;20036;-60
2023/05/03 09:28:11;;;;;;;2.25;0.90;;;15.10;95.80;;;;;;5049473;28;20036;-62
2023/05/03 09:30:37;;;;;;;2.58;1.00;;;15.40;95.90;;;;;;5041161;28;20565;-62
2023/05/03 09:33:03;;;;;;;3.08;1.45;;;15.60;95.30;;;;;;5049287;28;20057;-61
2023/05/03 09:35:31;;;;;;;2.25;1.00;;;15.90;95.10;;;;;;5055930;28;20048;-61
2023/05/03 09:37:57;;;;;;;3.65;1.17;;;16.00;93.90;;;;;;5037534;28;20045;-61
2023/05/03 09:40:22;;;;;;;2.47;1.15;;;16.00;93.70;;;;;;5050112;28;20118;-60
2023/05/03 09:43:07;;;;;;;5.22;1.10;;;15.70;93.80;;;;;;5039171;28;20138;-61
2023/05/03 09:45:34;;;;;;;4.35;1.50;;;15.40;91.70;;;;;;5046938;28;20111;-61
2023/05/03 09:48:04;;;;;;;3.40;1.30;;;15.00;92.50;;;;;;5043940;28;20037;-60
2023/05/03 09:50:35;;;;;;;3.05;1.10;;;14.90;92.50;;;;;;5044505;28;20045;-61
2023/05/03 09:53:05;;;;;;;2.17;1.20;;;14.90;92.30;;;;;;5047287;28;20084;-61
2023/05/03 09:55:40;;;;;;;2.30;1.10;;;15.30;93.50;;;;;;5048367;28;20068;-61
2023/05/03 09:58:07;;;;;;;2.05;1.27;;;15.70;93.20;;;;;;5045579;28;20036;-61
2023/05/03 10:00:35;;;;;;;3.40;1.17;;;16.00;92.20;;;;;;5046688;28;20369;-61
2023/05/03 10:03:05;;;;;;;2.97;1.00;;;16.00;91.60;;;;;;5048137;28;20045;-62
2023/05/03 10:05:34;;;;;;;1.40;1.17;;;15.90;91.40;;;;;;5039584;28;20381;-61
2023/05/03 10:08:04;;;;;;;2.75;1.00;;;16.00;90.80;;;;;;5042694;28;20049;-59
2023/05/03 10:10:32;;;;;;;2.20;1.10;;;16.10;91.10;;;;;;5042087;28;21177;-61
2023/05/03 10:13:01;;;;;;;4.97;1.38;;;16.00;90.90;;;;;;5047426;28;20408;-60
2023/05/03 10:15:28;;;;;;;1.73;1.10;;;15.90;91.10;;;;;;5046280;28;20090;-61
2023/05/03 10:17:56;;;;;;;3.35;1.27;;;15.60;91.20;;;;;;5035862;28;20048;-60
2023/05/03 10:20:49;;;;;;;2.78;1.10;;;15.40;91.80;;;;;;5046835;28;20124;-60
2023/05/03 10:23:16;;;;;;;;;;;15.10;91.40;;;;;;5035371;28;20048;-62
2023/05/03 10:26:08;;;;;;;4.05;1.17;;;14.70;89.30;;;;;;5032067;28;19921;-61
2023/05/03 10:28:37;;;;;;;1.60;1.13;;;14.60;91.60;;;;;;5035095;28;20127;-60
2023/05/03 10:31:03;;;;;;;5.00;1.70;;;15.10;92.60;;;;;;5038901;28;20049;-61
2023/05/03 10:33:35;;;;;;;5.45;1.27;;;15.40;92.50;;;;;;5036172;28;20479;-61
2023/05/03 10:36:05;;;;;;;3.88;1.30;;;15.60;91.00;;;;;;5033796;28;20041;-62
2023/05/03 10:38:31;;;;;;;3.92;2.22;;;16.00;91.30;;;;;;5044480;28;20045;-61
2023/05/03 10:40:58;;;;;;;3.40;1.10;;;16.30;92.20;;;;;;5048029;28;20204;-61
2023/05/03 10:43:30;;;;;;;2.35;1.23;;;16.40;91.40;;;;;;5044646;28;20128;-62
2023/05/03 10:46:03;;;;;;;3.07;1.23;;;16.30;90.20;;;;;;5049839;28;20029;-61
2023/05/03 10:48:30;;;;;;;5.03;1.30;;;16.00;90.50;;;;;;5046827;28;20029;-62
2023/05/03 10:50:57;;;;;;;3.15;1.20;;;15.90;89.70;;;;;;5038550;28;20495;-61
2023/05/03 10:53:41;;;;;;;4.60;1.40;;;15.90;90.60;;;;;;5034607;28;20061;-60
2023/05/03 10:56:14;;;;;;;3.67;1.50;;;16.10;90.00;;;;;;5048251;28;20037;-62
2023/05/03 10:58:45;;;;;;;3.78;1.50;;;16.30;90.00;;;;;;5040421;28;20110;-62
2023/05/03 11:01:12;;;;;;;4.60;1.50;;;16.40;90.40;;;;;;5035857;28;20086;-62
2023/05/03 11:03:41;;;;;;;2.25;1.40;;;16.60;90.70;;;;;;5037281;28;20129;-62
2023/05/03 11:06:07;;;;;;;2.97;1.20;;;17.00;90.70;;;;;;5034230;28;20094;-61
2023/05/03 11:08:36;;;;;;;5.80;1.98;;;17.30;90.90;;;;;;5038637;28;20430;-61
2023/05/03 11:11:08;;;;;;;5.25;1.40;;;17.50;90.20;;;;;;5039099;28;20080;-61
2023/05/03 11:13:35;;;;;;;1.85;1.10;;;17.40;88.40;;;;;;5048963;28;20052;-61
2023/05/03 11:16:03;;;;;;;4.05;1.30;;;17.40;87.90;;;;;;5044554;28;20131;-61
2023/05/03 11:18:31;;;;;;;4.05;1.42;;;17.40;88.00;;;;;;5052214;28;20569;-61
2023/05/03 11:20:57;;;;;;;2.55;1.48;;;17.60;87.50;;;;;;5046080;28;20064;-58
2023/05/03 11:23:27;;;;;;;3.72;1.45;;;17.60;87.60;;;;;;5050842;28;20037;-62
2023/05/03 11:25:53;;;;;;;2.17;1.40;;;17.60;85.90;;;;;;5050993;28;20622;-61
2023/05/03 11:28:19;;;;;;;3.08;1.48;;;17.60;84.10;;;;;;5051853;28;20033;-61
2023/05/03 11:30:46;;;;;;;2.40;1.33;;;17.70;85.00;;;;;;5045407;28;20029;-61
2023/05/03 11:33:11;;;;;;;4.30;1.67;;;17.60;86.60;;;;;;5049611;28;20527;-61
2023/05/03 11:35:38;;;;;;;3.35;1.45;;;17.40;84.30;;;;;;5051197;28;20069;-61
2023/05/03 11:38:04;;;;;;;2.50;1.30;;;17.40;84.50;;;;;;5053262;28;20396;-60
2023/05/03 11:40:30;;;;;;;2.58;1.30;;;17.60;83.70;;;;;;5045968;28;20055;-66
2023/05/03 11:42:59;;;;;;;3.17;1.42;;;17.70;85.00;;;;;;5049291;28;20407;-61
2023/05/03 11:45:39;;;;;;;1.90;1.30;;;17.80;82.90;;;;;;5053013;28;20051;-63
2023/05/03 11:48:05;;;;;;;2.85;1.50;;;18.00;83.90;;;;;;5049329;28;20127;-62
2023/05/03 11:50:54;;;;;;;4.75;1.63;;;17.90;82.50;;;;;;5046325;28;20507;-62
2023/05/03 11:53:24;;;;;;;1.95;1.23;;;18.00;85.70;;;;;;5048435;28;20084;-61
2023/05/03 11:55:52;;;;;;;5.25;1.55;;;17.80;82.90;;;;;;5051229;28;20041;-62
2023/05/03 11:58:26;;;;;;;5.35;1.75;;;18.00;84.50;;;;;;5050932;28;20045;-63
2023/05/03 12:00:54;;;;;;;2.42;1.33;;;18.20;83.50;;;;;;5049148;28;20047;-62
2023/05/03 12:03:24;;;;;;;4.45;1.52;;;18.20;81.30;;;;;;5049510;28;20095;-63
2023/05/03 12:05:53;;;;;;;2.30;1.60;;;18.10;82.60;;;;;;5049854;28;20036;-63
2023/05/03 12:08:20;;;;;;;2.88;1.70;;;18.00;79.60;;;;;;5052359;28;20094;-62
2023/05/03 12:10:49;;;;;;;4.22;1.63;;;17.90;78.60;;;;;;5050427;28;20106;-61
2023/05/03 12:13:28;;;;;;;2.67;1.40;;;17.80;79.50;;;;;;5050947;28;20171;-61
2023/05/03 12:16:01;;;;;;;3.17;1.60;;;17.80;82.70;;;;;;5047462;28;20048;-61
2023/05/03 12:18:27;;;;;;;;;;;17.80;79.70;;;;;;5052509;28;20095;-60
2023/05/03 12:20:57;;;;;;;5.75;1.77;;;17.50;77.60;;;;;;5048458;28;19920;-62
2023/05/03 12:23:25;;;;;;;5.35;1.90;;;17.50;79.40;;;;;;5050697;28;20053;-61
2023/05/03 12:25:52;;;;;;;1.92;1.65;;;17.50;80.90;;;;;;5048092;28;20183;-63
2023/05/03 12:28:18;;;;;;;3.80;1.50;;;17.60;81.00;;;;;;5049653;28;20041;-62
2023/05/03 12:30:44;;;;;;;4.80;1.55;;;17.70;80.70;;;;;;5046664;28;20480;-61
2023/05/03 12:33:09;;;;;;;4.95;1.88;;;17.70;80.40;;;;;;5050474;28;20045;-62
2023/05/03 12:35:35;;;;;;;3.97;1.60;;;17.50;79.50;;;;;;5048675;28;20037;-61
2023/05/03 12:38:05;;;;;;;3.95;1.90;;;17.60;78.90;;;;;;5050796;28;20412;-62
2023/05/03 12:40:31;;;;;;;4.80;1.70;;;17.50;78.20;;;;;;5048416;28;20182;-62
2023/05/03 12:42:57;;;;;;;3.13;1.45;;;17.40;78.30;;;;;;5047820;28;20094;-61
2023/05/03 12:45:28;;;;;;;3.60;2.00;;;17.40;78.80;;;;;;5035354;28;20056;-60
2023/05/03 12:47:54;;;;;;;6.53;1.50;;;17.50;80.50;;;;;;5041761;28;20132;-62
2023/05/03 12:50:20;;;;;;;5.00;1.70;;;17.60;80.10;;;;;;5046501;28;20191;-60
2023/05/03 12:52:45;;;;;;;4.22;1.50;;;17.70;78.30;;;;;;5044480;28;20144;-63
2023/05/03 12:55:11;;;;;;;3.58;1.70;;;17.60;78.70;;;;;;5041180;28;20044;-60